Time;durP1;ratioP1;P1;durP2;ratioP2;P2;SDS_P1;SDS_P2;PMS_P1;PMS_P2;Temp;Humidity;BMP_temperature;BMP_pressure;BME280_temperature;BME280_humidity;BME280_pressure;Samples;Min_cycle;Max_cycle;Signal;HPM_P1;HPM_P2
2023/12/22 00:00:56;;;;;;;1.40;0.50;;;;;;;;;;5033978;28;20029;-68
2023/12/22 00:03:21;;;;;;;2.42;0.55;;;;;;;;;;5034683;28;20017;-68
2023/12/22 00:05:46;;;;;;;1.80;0.40;;;;;;;;;;5032858;28;20028;-68
2023/12/22 00:08:11;;;;;;;3.37;0.50;;;;;;;;;;5034641;28;20358;-68
2023/12/22 00:10:37;;;;;;;3.93;0.60;;;;;;;;;;5032538;28;20310;-68
2023/12/22 00:13:02;;;;;;;1.45;0.55;;;;;;;;;;5032871;28;20274;-68
2023/12/22 00:15:27;;;;;;;4.95;0.75;;;;;;;;;;5032810;28;20049;-68
2023/12/22 00:17:53;;;;;;;2.30;0.57;;;;;;;;;;5034183;28;20018;-68
2023/12/22 00:20:19;;;;;;;3.50;0.60;;;;;;;;;;5034195;28;20758;-69
2023/12/22 00:22:44;;;;;;;1.88;0.68;;;;;;;;;;5033460;28;20021;-68
2023/12/22 00:25:09;;;;;;;1.67;0.60;;;;;;;;;;5034354;28;20363;-68
2023/12/22 00:27:35;;;;;;;0.70;0.40;;;;;;;;;;5029993;28;20405;-68
2023/12/22 00:30:00;;;;;;;4.03;0.60;;;;;;;;;;5032860;28;20159;-68
2023/12/22 00:32:25;;;;;;;9.63;0.90;;;;;;;;;;5034161;28;20030;-68
2023/12/22 00:34:50;;;;;;;1.77;0.82;;;;;;;;;;5033583;28;20271;-68
2023/12/22 00:37:16;;;;;;;1.57;0.30;;;;;;;;;;5034390;28;20071;-68
2023/12/22 00:39:41;;;;;;;4.38;0.80;;;;;;;;;;5033709;28;20263;-68
2023/12/22 00:42:06;;;;;;;2.93;0.73;;;;;;;;;;5032815;28;20385;-68
2023/12/22 00:44:31;;;;;;;2.40;0.70;;;;;;;;;;5031441;28;20816;-68
2023/12/22 00:46:57;;;;;;;1.50;0.50;;;;;;;;;;5034153;28;20734;-68
2023/12/22 00:49:22;;;;;;;4.93;0.90;;;;;;;;;;5033760;28;20270;-68
2023/12/22 00:51:47;;;;;;;2.50;0.97;;;;;;;;;;5033987;28;20749;-68
2023/12/22 00:54:12;;;;;;;6.18;0.88;;;;;;;;;;5034347;28;20273;-66
2023/12/22 00:56:38;;;;;;;2.57;0.80;;;;;;;;;;5033437;28;20061;-68
2023/12/22 00:59:03;;;;;;;5.30;0.87;;;;;;;;;;5031187;28;20313;-69
2023/12/22 01:01:28;;;;;;;3.00;0.90;;;;;;;;;;5033596;28;20366;-67
2023/12/22 01:03:53;;;;;;;3.07;0.83;;;;;;;;;;5032751;28;20021;-68
2023/12/22 01:06:18;;;;;;;7.32;1.40;;;;;;;;;;5033719;28;20254;-68
2023/12/22 01:08:44;;;;;;;6.93;0.90;;;;;;;;;;5034857;28;20030;-69
2023/12/22 01:11:09;;;;;;;5.73;1.10;;;;;;;;;;5034959;28;20274;-69
2023/12/22 01:13:34;;;;;;;4.53;1.00;;;;;;;;;;5033783;28;20353;-69
2023/12/22 01:15:59;;;;;;;1.57;0.60;;;;;;;;;;5031789;28;20058;-68
2023/12/22 01:18:28;;;;;;;3.63;0.95;;;;;;;;;;5030360;28;20262;-68
2023/12/22 01:20:54;;;;;;;3.10;0.95;;;;;;;;;;5032637;28;20517;-70
2023/12/22 01:23:19;;;;;;;5.97;1.20;;;;;;;;;;5032983;28;20020;-68
2023/12/22 01:25:44;;;;;;;5.10;1.00;;;;;;;;;;5032718;28;20270;-68
2023/12/22 01:28:09;;;;;;;8.25;0.90;;;;;;;;;;5033631;28;20272;-68
2023/12/22 01:30:35;;;;;;;4.90;1.20;;;;;;;;;;5033295;28;20028;-68
2023/12/22 01:33:00;;;;;;;4.57;0.90;;;;;;;;;;5031216;28;20266;-68
2023/12/22 01:35:25;;;;;;;5.13;1.13;;;;;;;;;;5033391;28;20550;-69
2023/12/22 01:37:51;;;;;;;3.50;0.90;;;;;;;;;;5033134;28;20272;-69
2023/12/22 01:40:16;;;;;;;5.05;1.23;;;;;;;;;;5032465;28;20361;-68
2023/12/22 01:42:41;;;;;;;5.60;1.33;;;;;;;;;;5033314;28;20527;-68
2023/12/22 01:45:07;;;;;;;3.53;0.80;;;;;;;;;;5033105;28;20373;-68
2023/12/22 01:47:33;;;;;;;1.95;0.70;;;;;;;;;;5031181;28;20159;-68
2023/12/22 01:49:58;;;;;;;5.30;1.25;;;;;;;;;;5027274;28;20021;-69
2023/12/22 01:52:24;;;;;;;6.28;1.20;;;;;;;;;;5032513;28;20095;-68
2023/12/22 01:54:50;;;;;;;2.60;0.75;;;;;;;;;;5032868;28;20424;-68
2023/12/22 01:57:17;;;;;;;4.95;0.88;;;;;;;;;;5032737;28;20025;-69
2023/12/22 01:59:42;;;;;;;2.45;0.70;;;;;;;;;;5032306;28;20059;-68
2023/12/22 02:02:08;;;;;;;3.42;0.80;;;;;;;;;;5032515;28;20018;-68
2023/12/22 02:04:33;;;;;;;4.47;0.70;;;;;;;;;;5032786;28;20017;-65
2023/12/22 02:07:00;;;;;;;2.38;0.70;;;;;;;;;;5024172;28;20276;-65
2023/12/22 02:09:25;;;;;;;4.65;0.80;;;;;;;;;;5031881;28;20474;-66
2023/12/22 02:11:51;;;;;;;4.83;0.90;;;;;;;;;;5032902;28;20093;-65
2023/12/22 02:14:16;;;;;;;5.53;1.30;;;;;;;;;;5031777;28;20263;-66
2023/12/22 02:17:00;;;;;;;6.10;0.80;;;;;;;;;;5032529;28;20274;-66
2023/12/22 02:19:45;;;;;;;7.57;0.95;;;;;;;;;;5031724;28;20349;-66
2023/12/22 02:22:11;;;;;;;1.67;0.82;;;;;;;;;;5032336;28;20021;-65
2023/12/22 02:24:37;;;;;;;5.55;0.57;;;;;;;;;;5030309;28;20084;-65
2023/12/22 02:27:08;;;;;;;4.32;0.73;;;;;;;;;;5032336;28;20112;-66
2023/12/22 02:29:36;;;;;;;4.17;0.77;;;;;;;;;;5031460;28;20021;-66
2023/12/22 02:32:05;;;;;;;3.63;0.70;;;;;;;;;;5031923;28;20428;-66
2023/12/22 02:34:31;;;;;;;6.95;1.00;;;;;;;;;;5030813;28;20018;-66
2023/12/22 02:36:56;;;;;;;4.93;1.13;;;;;;;;;;5032199;28;20032;-65
2023/12/22 02:39:22;;;;;;;4.13;0.80;;;;;;;;;;5032341;28;20462;-66
2023/12/22 02:41:47;;;;;;;5.35;0.77;;;;;;;;;;5031244;28;20115;-66
2023/12/22 02:44:12;;;;;;;6.43;0.80;;;;;;;;;;5032010;28;20049;-66
2023/12/22 02:46:38;;;;;;;5.47;1.30;;;;;;;;;;5024913;28;20018;-66
2023/12/22 02:49:03;;;;;;;8.20;1.40;;;;;;;;;;5031595;28;20466;-66
2023/12/22 02:51:28;;;;;;;8.33;1.20;;;;;;;;;;5033769;28;20263;-66
2023/12/22 02:53:53;;;;;;;7.50;1.45;;;;;;;;;;5036397;28;20040;-66
2023/12/22 02:56:19;;;;;;;11.00;1.73;;;;;;;;;;5035428;28;20041;-66
2023/12/22 02:58:44;;;;;;;9.95;0.93;;;;;;;;;;5035896;28;20270;-66
2023/12/22 03:01:09;;;;;;;7.30;1.60;;;;;;;;;;5036192;28;20018;-66
2023/12/22 03:03:34;;;;;;;10.90;1.40;;;;;;;;;;5032669;28;20290;-65
2023/12/22 03:05:59;;;;;;;6.60;1.13;;;;;;;;;;5035652;28;20349;-65
2023/12/22 03:08:25;;;;;;;8.43;1.70;;;;;;;;;;5036391;28;20262;-66
2023/12/22 03:10:50;;;;;;;6.47;1.50;;;;;;;;;;5035266;28;20306;-66
2023/12/22 03:13:15;;;;;;;8.65;1.52;;;;;;;;;;5035178;28;20266;-65
2023/12/22 03:15:40;;;;;;;10.33;1.80;;;;;;;;;;5035763;28;20056;-65
2023/12/22 03:18:05;;;;;;;8.17;1.50;;;;;;;;;;5029522;28;20262;-65
2023/12/22 03:20:31;;;;;;;6.73;1.67;;;;;;;;;;5035524;28;20278;-65
2023/12/22 03:22:56;;;;;;;10.50;1.55;;;;;;;;;;5034625;28;20746;-65
2023/12/22 03:25:21;;;;;;;6.80;1.07;;;;;;;;;;5035788;28;20092;-65
2023/12/22 03:27:46;;;;;;;5.90;1.65;;;;;;;;;;5035735;28;20082;-65
2023/12/22 03:30:12;;;;;;;11.70;1.87;;;;;;;;;;5033299;28;20022;-66
2023/12/22 03:32:37;;;;;;;5.57;1.55;;;;;;;;;;5035498;28;20258;-65
2023/12/22 03:35:03;;;;;;;6.30;1.23;;;;;;;;;;5035309;28;20028;-65
2023/12/22 03:37:28;;;;;;;5.85;1.13;;;;;;;;;;5034655;28;20259;-65
2023/12/22 03:39:53;;;;;;;9.73;1.10;;;;;;;;;;5035428;28;20079;-65
2023/12/22 03:42:18;;;;;;;5.55;1.20;;;;;;;;;;5034551;28;20328;-66
2023/12/22 03:44:44;;;;;;;5.40;1.20;;;;;;;;;;5028151;28;20065;-66
2023/12/22 03:47:09;;;;;;;6.57;1.33;;;;;;;;;;5034537;28;20064;-66
2023/12/22 03:49:34;;;;;;;3.77;0.97;;;;;;;;;;5034940;28;20380;-66
2023/12/22 03:51:59;;;;;;;4.83;1.87;;;;;;;;;;5035403;28;20267;-65
2023/12/22 03:54:24;;;;;;;8.13;1.27;;;;;;;;;;5035061;28;20262;-65
2023/12/22 03:56:50;;;;;;;9.40;2.03;;;;;;;;;;5034292;28;20274;-65
2023/12/22 03:59:18;;;;;;;11.05;2.05;;;;;;;;;;5035082;28;20316;-65
2023/12/22 04:01:43;;;;;;;16.42;2.38;;;;;;;;;;5034185;28;20413;-66
2023/12/22 04:04:08;;;;;;;14.07;2.50;;;;;;;;;;5034025;28;20036;-66
2023/12/22 04:06:37;;;;;;;5.10;1.97;;;;;;;;;;5034279;28;20033;-65
2023/12/22 04:09:03;;;;;;;8.95;1.83;;;;;;;;;;5034384;28;20300;-66
2023/12/22 04:11:28;;;;;;;5.90;1.60;;;;;;;;;;5034609;28;20099;-66
2023/12/22 04:13:53;;;;;;;11.02;2.15;;;;;;;;;;5033903;28;20388;-65
2023/12/22 04:16:18;;;;;;;12.23;2.00;;;;;;;;;;5033486;28;20049;-66
2023/12/22 04:18:43;;;;;;;12.93;2.33;;;;;;;;;;5034741;28;20450;-65
2023/12/22 04:21:09;;;;;;;10.73;2.10;;;;;;;;;;5028390;28;20809;-65
2023/12/22 04:23:34;;;;;;;10.87;1.93;;;;;;;;;;5033729;28;20030;-65
2023/12/22 04:25:59;;;;;;;10.70;1.90;;;;;;;;;;5034692;28;20018;-68
2023/12/22 04:28:24;;;;;;;17.58;2.72;;;;;;;;;;5034222;28;20738;-67
2023/12/22 04:30:50;;;;;;;15.27;2.23;;;;;;;;;;5034142;28;20055;-69
2023/12/22 04:33:15;;;;;;;12.75;1.80;;;;;;;;;;5033602;28;20630;-69
2023/12/22 04:35:41;;;;;;;19.08;1.75;;;;;;;;;;5033085;28;20473;-68
2023/12/22 04:38:06;;;;;;;12.43;1.58;;;;;;;;;;5033449;28;20299;-68
2023/12/22 04:40:31;;;;;;;9.73;1.80;;;;;;;;;;5034243;28;20120;-69
2023/12/22 04:42:56;;;;;;;8.03;1.47;;;;;;;;;;5033305;28;20277;-68
2023/12/22 04:45:21;;;;;;;6.13;1.40;;;;;;;;;;5034470;28;20308;-69
2023/12/22 04:47:47;;;;;;;10.50;1.83;;;;;;;;;;5034393;28;20028;-69
2023/12/22 04:50:12;;;;;;;9.33;1.80;;;;;;;;;;5033535;28;20270;-68
2023/12/22 04:52:37;;;;;;;12.02;1.67;;;;;;;;;;5033090;28;20262;-69
2023/12/22 04:55:02;;;;;;;15.17;1.83;;;;;;;;;;5033272;28;20021;-69
2023/12/22 04:57:28;;;;;;;14.90;2.20;;;;;;;;;;5033399;28;20267;-70
2023/12/22 04:59:53;;;;;;;7.13;1.40;;;;;;;;;;5034339;28;20017;-68
2023/12/22 05:02:18;;;;;;;4.17;1.17;;;;;;;;;;5034093;28;20044;-69
2023/12/22 05:04:43;;;;;;;13.15;2.05;;;;;;;;;;5035101;28;20245;-69
2023/12/22 05:07:10;;;;;;;10.90;1.53;;;;;;;;;;5032935;28;20071;-68
2023/12/22 05:09:35;;;;;;;11.98;1.70;;;;;;;;;;5032932;28;20772;-68
2023/12/22 05:12:00;;;;;;;19.80;2.08;;;;;;;;;;5033924;28;20101;-68
2023/12/22 05:14:26;;;;;;;8.88;1.60;;;;;;;;;;5032904;28;20394;-69
2023/12/22 05:16:55;;;;;;;14.00;1.67;;;;;;;;;;5033136;28;20108;-68
2023/12/22 05:19:20;;;;;;;13.95;2.25;;;;;;;;;;5032678;28;20353;-68
2023/12/22 05:21:45;;;;;;;6.10;1.30;;;;;;;;;;5026410;28;20117;-70
2023/12/22 05:24:10;;;;;;;13.93;2.13;;;;;;;;;;5032521;28;20285;-69
2023/12/22 05:26:35;;;;;;;14.33;2.57;;;;;;;;;;5033299;28;20286;-69
2023/12/22 05:29:01;;;;;;;7.97;1.80;;;;;;;;;;5031864;28;20317;-69
2023/12/22 05:31:27;;;;;;;9.43;1.50;;;;;;;;;;5032291;28;20045;-69
2023/12/22 05:33:52;;;;;;;12.80;1.77;;;;;;;;;;5033539;28;20266;-69
2023/12/22 05:36:18;;;;;;;13.98;2.20;;;;;;;;;;5032120;28;20029;-69
2023/12/22 05:38:43;;;;;;;11.82;2.33;;;;;;;;;;5026797;28;20052;-69
2023/12/22 05:41:08;;;;;;;20.45;2.25;;;;;;;;;;5030037;28;20036;-69
2023/12/22 05:43:33;;;;;;;12.13;2.60;;;;;;;;;;5032232;28;20023;-69
2023/12/22 05:45:59;;;;;;;7.80;1.87;;;;;;;;;;5034303;28;20239;-69
2023/12/22 05:48:25;;;;;;;16.08;1.83;;;;;;;;;;5033772;28;20246;-69
2023/12/22 05:50:50;;;;;;;11.43;2.33;;;;;;;;;;5034254;28;20421;-69
2023/12/22 05:53:15;;;;;;;19.47;2.00;;;;;;;;;;5033992;28;20052;-69
2023/12/22 05:55:40;;;;;;;11.10;1.92;;;;;;;;;;5016238;28;20108;-69
2023/12/22 05:58:06;;;;;;;13.65;2.47;;;;;;;;;;5014078;28;20109;-69
2023/12/22 06:00:31;;;;;;;14.43;2.15;;;;;;;;;;5014240;28;20026;-69
2023/12/22 06:02:56;;;;;;;8.43;2.20;;;;;;;;;;5014063;28;20036;-69
2023/12/22 06:05:22;;;;;;;12.35;2.33;;;;;;;;;;5014245;28;20250;-69
2023/12/22 06:07:47;;;;;;;9.55;2.03;;;;;;;;;;5014243;28;20462;-69
2023/12/22 06:10:12;;;;;;;14.45;2.45;;;;;;;;;;5014011;28;20022;-69
2023/12/22 06:12:38;;;;;;;9.30;1.90;;;;;;;;;;5013869;28;20478;-69
2023/12/22 06:15:03;;;;;;;9.52;1.52;;;;;;;;;;5013713;28;20192;-69
2023/12/22 06:17:28;;;;;;;10.30;2.05;;;;;;;;;;5013751;28;20069;-69
2023/12/22 06:19:53;;;;;;;16.63;2.50;;;;;;;;;;5013833;28;20041;-69
2023/12/22 06:22:19;;;;;;;8.97;1.73;;;;;;;;;;5014236;28;20271;-69
2023/12/22 06:24:44;;;;;;;7.23;1.97;;;;;;;;;;5033320;28;20017;-69
2023/12/22 06:27:10;;;;;;;7.10;1.73;;;;;;;;;;5032938;28;20715;-69
2023/12/22 06:29:35;;;;;;;7.25;2.03;;;;;;;;;;5033449;28;20079;-69
2023/12/22 06:32:00;;;;;;;12.50;1.90;;;;;;;;;;5033409;28;20495;-70
2023/12/22 06:34:25;;;;;;;14.27;1.87;;;;;;;;;;5033587;28;20246;-69
2023/12/22 06:36:51;;;;;;;21.33;2.70;;;;;;;;;;5033325;28;20342;-69
2023/12/22 06:39:16;;;;;;;8.57;2.25;;;;;;;;;;5018626;28;20405;-69
2023/12/22 06:41:41;;;;;;;12.10;1.90;;;;;;;;;;5013729;28;20022;-69
2023/12/22 06:44:07;;;;;;;15.97;2.03;;;;;;;;;;5013572;28;20088;-69
2023/12/22 06:46:32;;;;;;;9.45;2.28;;;;;;;;;;5013646;28;20270;-65
2023/12/22 06:48:58;;;;;;;12.63;2.20;;;;;;;;;;5013744;28;20021;-65
2023/12/22 06:51:24;;;;;;;13.80;2.30;;;;;;;;;;5013422;28;20147;-65
2023/12/22 06:53:49;;;;;;;16.92;2.38;;;;;;;;;;5013496;28;20105;-65
2023/12/22 06:56:18;;;;;;;13.98;1.80;;;;;;;;;;5013468;28;20057;-65
2023/12/22 06:58:43;;;;;;;17.60;2.28;;;;;;;;;;5013378;28;20017;-65
2023/12/22 07:01:09;;;;;;;16.67;2.33;;;;;;;;;;5013511;28;20072;-65
2023/12/22 07:03:34;;;;;;;10.07;2.03;;;;;;;;;;5013373;28;20030;-65
2023/12/22 07:05:59;;;;;;;13.38;2.53;;;;;;;;;;5013549;28;20025;-65
2023/12/22 07:08:25;;;;;;;8.65;2.35;;;;;;;;;;5013554;28;20022;-65
2023/12/22 07:10:50;;;;;;;12.63;1.92;;;;;;;;;;5013013;28;20022;-65
2023/12/22 07:13:15;;;;;;;16.23;3.07;;;;;;;;;;5013029;28;20057;-65
2023/12/22 07:15:40;;;;;;;19.07;3.20;;;;;;;;;;5013040;28;20369;-65
2023/12/22 07:18:06;;;;;;;12.63;2.23;;;;;;;;;;5013178;28;20331;-65
2023/12/22 07:20:31;;;;;;;14.02;2.60;;;;;;;;;;5013245;28;20743;-65
2023/12/22 07:22:56;;;;;;;13.33;2.77;;;;;;;;;;5013152;28;20026;-65
2023/12/22 07:25:21;;;;;;;16.77;2.70;;;;;;;;;;5013200;28;20247;-65
2023/12/22 07:27:47;;;;;;;21.70;3.13;;;;;;;;;;5013421;28;20354;-65
2023/12/22 07:30:15;;;;;;;17.92;2.60;;;;;;;;;;5013350;28;20378;-65
2023/12/22 07:32:41;;;;;;;18.55;2.50;;;;;;;;;;5013346;28;20018;-65
2023/12/22 07:35:07;;;;;;;9.80;2.15;;;;;;;;;;5013001;28;20382;-65
2023/12/22 07:37:35;;;;;;;15.95;2.35;;;;;;;;;;5015336;28;20145;-65
2023/12/22 07:40:00;;;;;;;16.90;2.85;;;;;;;;;;5016729;28;20045;-65
2023/12/22 07:42:25;;;;;;;19.13;2.57;;;;;;;;;;5016583;28;20022;-65
2023/12/22 07:44:50;;;;;;;17.92;3.42;;;;;;;;;;5016562;28;20255;-65
2023/12/22 07:47:16;;;;;;;15.53;2.90;;;;;;;;;;5016589;28;20017;-65
2023/12/22 07:49:41;;;;;;;11.03;2.53;;;;;;;;;;5016497;28;20251;-65
2023/12/22 07:52:06;;;;;;;18.77;3.08;;;;;;;;;;5016379;28;20236;-65
2023/12/22 07:54:32;;;;;;;20.43;2.73;;;;;;;;;;5016559;28;20029;-69
2023/12/22 07:56:57;;;;;;;17.27;2.83;;;;;;;;;;5017425;28;20251;-69
2023/12/22 07:59:22;;;;;;;15.00;3.40;;;;;;;;;;5034818;28;20258;-69
2023/12/22 08:01:47;;;;;;;17.37;2.43;;;;;;;;;;5036069;28;20029;-69
2023/12/22 08:04:13;;;;;;;9.47;2.37;;;;;;;;;;5028054;28;20017;-69
2023/12/22 08:06:38;;;;;;;27.58;3.38;;;;;;;;;;5022413;28;20247;-69
2023/12/22 08:09:03;;;;;;;14.18;2.60;;;;;;;;;;5016327;28;20363;-69
2023/12/22 08:11:28;;;;;;;19.07;3.33;;;;;;;;;;5035794;28;20068;-69
2023/12/22 08:13:54;;;;;;;21.27;3.70;;;;;;;;;;5035652;28;20348;-69
2023/12/22 08:16:19;;;;;;;21.20;2.55;;;;;;;;;;5035471;28;20377;-69
2023/12/22 08:18:44;;;;;;;11.43;2.63;;;;;;;;;;5035590;28;20083;-70
2023/12/22 08:21:10;;;;;;;13.63;2.73;;;;;;;;;;5035518;28;20022;-69
2023/12/22 08:23:35;;;;;;;19.60;3.37;;;;;;;;;;5016242;28;20255;-69
2023/12/22 08:26:00;;;;;;;17.15;2.88;;;;;;;;;;5021646;28;20249;-68
2023/12/22 08:28:25;;;;;;;14.97;3.07;;;;;;;;;;5038537;28;20059;-69
2023/12/22 08:30:52;;;;;;;20.02;3.40;;;;;;;;;;5027728;28;20269;-69
2023/12/22 08:33:17;;;;;;;15.10;3.30;;;;;;;;;;5035294;28;20021;-70
2023/12/22 08:35:42;;;;;;;17.98;2.70;;;;;;;;;;5017756;28;20022;-68
2023/12/22 08:38:08;;;;;;;13.90;2.70;;;;;;;;;;5035347;28;20067;-69
2023/12/22 08:40:33;;;;;;;13.93;2.60;;;;;;;;;;5035427;28;20243;-69
2023/12/22 08:42:59;;;;;;;13.60;2.63;;;;;;;;;;5035220;28;20014;-69
2023/12/22 08:45:26;;;;;;;15.80;2.40;;;;;;;;;;5029999;28;20255;-69
2023/12/22 08:47:51;;;;;;;21.42;3.08;;;;;;;;;;5027479;28;20462;-69
2023/12/22 08:50:16;;;;;;;21.07;2.93;;;;;;;;;;5034520;28;20104;-69
2023/12/22 08:52:42;;;;;;;19.08;3.75;;;;;;;;;;5035198;28;20259;-69
2023/12/22 08:55:07;;;;;;;18.05;2.53;;;;;;;;;;5034923;28;20032;-69
2023/12/22 08:57:32;;;;;;;21.52;3.30;;;;;;;;;;5035399;28;20022;-69
2023/12/22 08:59:57;;;;;;;14.13;3.17;;;;;;;;;;5034912;28;20449;-69
2023/12/22 09:02:23;;;;;;;16.73;3.07;;;;;;;;;;5034771;28;20780;-70
2023/12/22 09:04:48;;;;;;;13.00;2.77;;;;;;;;;;5017895;28;20254;-65
2023/12/22 09:07:13;;;;;;;18.13;2.78;;;;;;;;;;5014861;28;20323;-65
2023/12/22 09:09:40;;;;;;;18.53;2.50;;;;;;;;;;5014901;28;20014;-65
2023/12/22 09:12:05;;;;;;;12.95;3.17;;;;;;;;;;5015113;28;20251;-65
2023/12/22 09:14:30;;;;;;;16.25;2.17;;;;;;;;;;5014595;28;20053;-65
2023/12/22 09:16:55;;;;;;;16.63;3.07;;;;;;;;;;5014857;28;20045;-65
2023/12/22 09:19:21;;;;;;;11.70;2.28;;;;;;;;;;5014556;28;20730;-65
2023/12/22 09:21:46;;;;;;;12.75;2.38;;;;;;;;;;5014801;28;20026;-65
2023/12/22 09:24:12;;;;;;;23.65;3.17;;;;;;;;;;5031424;28;20074;-65
2023/12/22 09:26:37;;;;;;;16.60;3.42;;;;;;;;;;5034519;28;20018;-65
2023/12/22 09:29:02;;;;;;;16.05;2.67;;;;;;;;;;5034316;28;20048;-65
2023/12/22 09:31:28;;;;;;;9.88;2.60;;;;;;;;;;5034148;28;20125;-65
2023/12/22 09:33:53;;;;;;;16.73;2.65;;;;;;;;;;5033994;28;20381;-65
2023/12/22 09:36:18;;;;;;;11.77;2.53;;;;;;;;;;5034230;28;20031;-65
2023/12/22 09:38:44;;;;;;;17.90;2.15;;;;;;;;;;5034116;28;20026;-65
2023/12/22 09:41:10;;;;;;;18.77;3.03;;;;;;;;;;5033888;28;20105;-65
2023/12/22 09:43:36;;;;;;;12.40;2.55;;;;;;;;;;5034160;28;20589;-65
2023/12/22 09:46:02;;;;;;;16.08;2.40;;;;;;;;;;5032731;28;20026;-65
2023/12/22 09:48:29;;;;;;;9.65;2.38;;;;;;;;;;5034200;28;20018;-65
2023/12/22 09:50:54;;;;;;;18.83;2.33;;;;;;;;;;5033691;28;20079;-65
2023/12/22 09:53:20;;;;;;;18.50;3.13;;;;;;;;;;5033844;28;20032;-65
2023/12/22 09:55:46;;;;;;;8.70;1.65;;;;;;;;;;5033633;28;20424;-65
2023/12/22 09:58:12;;;;;;;9.45;1.90;;;;;;;;;;5033763;28;20029;-65
2023/12/22 10:00:38;;;;;;;8.63;1.95;;;;;;;;;;5033644;28;20014;-65
2023/12/22 10:03:06;;;;;;;13.35;2.35;;;;;;;;;;5033739;28;20064;-65
2023/12/22 10:05:32;;;;;;;9.60;1.85;;;;;;;;;;5033620;28;20088;-65
2023/12/22 10:08:00;;;;;;;12.30;1.75;;;;;;;;;;5033669;28;20027;-65
2023/12/22 10:10:25;;;;;;;6.07;1.88;;;;;;;;;;5033867;28;20520;-65
2023/12/22 10:12:51;;;;;;;10.10;1.67;;;;;;;;;;5033786;28;20037;-65
2023/12/22 10:15:18;;;;;;;11.40;1.83;;;;;;;;;;5033262;28;20287;-65
2023/12/22 10:17:44;;;;;;;8.60;1.20;;;;;;;;;;5033485;28;20025;-65
2023/12/22 10:20:09;;;;;;;8.95;1.42;;;;;;;;;;5028015;28;20408;-65
2023/12/22 10:22:34;;;;;;;13.40;2.00;;;;;;;;;;5026873;28;20465;-65
2023/12/22 10:25:00;;;;;;;4.13;1.23;;;;;;;;;;5033220;28;20021;-65
2023/12/22 10:27:25;;;;;;;9.00;1.73;;;;;;;;;;5023658;28;20322;-65
2023/12/22 10:29:54;;;;;;;10.65;1.35;;;;;;;;;;5016641;28;20244;-65
2023/12/22 10:32:20;;;;;;;7.03;1.83;;;;;;;;;;5017280;28;20119;-65
2023/12/22 10:34:45;;;;;;;9.27;1.33;;;;;;;;;;5033507;28;20022;-65
2023/12/22 10:37:12;;;;;;;5.63;1.40;;;;;;;;;;5033099;28;20021;-66
2023/12/22 10:39:38;;;;;;;4.07;1.10;;;;;;;;;;5029509;28;20638;-65
2023/12/22 10:42:03;;;;;;;5.68;1.20;;;;;;;;;;5026162;28;20033;-65
2023/12/22 10:44:29;;;;;;;8.38;1.27;;;;;;;;;;5033217;28;20106;-65
2023/12/22 10:46:55;;;;;;;12.32;1.65;;;;;;;;;;5017192;28;20041;-65
2023/12/22 10:49:20;;;;;;;5.20;1.40;;;;;;;;;;5013488;28;20037;-65
2023/12/22 10:51:46;;;;;;;7.65;2.10;;;;;;;;;;5013274;28;20030;-65
2023/12/22 10:54:11;;;;;;;9.82;1.20;;;;;;;;;;5013631;28;20056;-65
2023/12/22 10:56:36;;;;;;;6.97;1.30;;;;;;;;;;5013367;28;20462;-65
2023/12/22 10:59:02;;;;;;;6.00;1.25;;;;;;;;;;5028552;28;20259;-65
2023/12/22 11:01:29;;;;;;;6.55;1.17;;;;;;;;;;5033058;28;20523;-65
2023/12/22 11:03:57;;;;;;;7.43;1.48;;;;;;;;;;5032978;28;20105;-65
2023/12/22 11:06:26;;;;;;;5.88;0.98;;;;;;;;;;5032997;28;20022;-65
2023/12/22 11:08:52;;;;;;;2.70;1.10;;;;;;;;;;5032855;28;20021;-65
2023/12/22 11:11:23;;;;;;;4.57;0.85;;;;;;;;;;5033065;28;20040;-65
2023/12/22 11:13:48;;;;;;;2.00;0.80;;;;;;;;;;5036704;28;20056;-65
2023/12/22 11:16:14;;;;;;;1.75;0.68;;;;;;;;;;5036649;28;20049;-65
2023/12/22 11:18:40;;;;;;;3.17;1.00;;;;;;;;;;5036874;28;20113;-65
2023/12/22 11:21:05;;;;;;;1.77;0.70;;;;;;;;;;5030641;28;20084;-65
2023/12/22 11:23:31;;;;;;;3.50;0.55;;;;;;;;;;5024985;28;20370;-65
2023/12/22 11:25:58;;;;;;;3.10;0.52;;;;;;;;;;5035361;28;20401;-70
2023/12/22 11:28:24;;;;;;;2.83;0.80;;;;;;;;;;5034178;28;20473;-69
2023/12/22 11:30:52;;;;;;;1.77;0.63;;;;;;;;;;5032037;28;20477;-69
2023/12/22 11:33:17;;;;;;;2.50;0.75;;;;;;;;;;5032021;28;20033;-70
2023/12/22 11:35:42;;;;;;;3.05;1.13;;;;;;;;;;5030740;28;20037;-70
2023/12/22 11:38:10;;;;;;;2.45;1.10;;;;;;;;;;5034247;28;20045;-69
2023/12/22 11:40:35;;;;;;;5.28;0.85;;;;;;;;;;5034587;28;20071;-69
2023/12/22 11:43:00;;;;;;;1.48;0.60;;;;;;;;;;5033726;28;20733;-69
2023/12/22 11:45:25;;;;;;;0.98;0.63;;;;;;;;;;5034029;28;20017;-69
2023/12/22 11:47:51;;;;;;;3.47;0.90;;;;;;;;;;5034328;28;20117;-69
2023/12/22 11:50:32;;;;;;;3.08;0.68;;;;;;;;;;5034698;28;20018;-70
2023/12/22 11:53:17;;;;;;;1.95;0.75;;;;;;;;;;5033711;28;20182;-69
2023/12/22 11:56:01;;;;;;;2.40;0.60;;;;;;;;;;5032799;28;20484;-69
2023/12/22 11:58:41;;;;;;;1.58;0.52;;;;;;;;;;5033312;28;20021;-70
2023/12/22 12:01:10;;;;;;;3.40;0.80;;;;;;;;;;5034131;28;20037;-69
2023/12/22 12:03:38;;;;;;;3.00;0.73;;;;;;;;;;5034781;28;20025;-69
2023/12/22 12:06:22;;;;;;;2.47;0.60;;;;;;;;;;5034632;28;20029;-69
2023/12/22 12:08:48;;;;;;;2.15;0.55;;;;;;;;;;5033638;28;20017;-69
2023/12/22 12:11:14;;;;;;;4.70;0.52;;;;;;;;;;5034383;28;20104;-70
2023/12/22 12:13:42;;;;;;;2.42;0.40;;;;;;;;;;5033634;28;20067;-69
2023/12/22 12:16:07;;;;;;;0.55;0.40;;;;;;;;;;5033517;28;20049;-69
2023/12/22 12:18:34;;;;;;;1.77;0.55;;;;;;;;;;5034271;28;20078;-69
2023/12/22 12:21:00;;;;;;;1.15;0.50;;;;;;;;;;5031651;28;20025;-70
2023/12/22 12:23:26;;;;;;;1.08;0.60;;;;;;;;;;5032187;28;20160;-69
2023/12/22 12:25:52;;;;;;;2.08;0.60;;;;;;;;;;5032275;28;20374;-68
2023/12/22 12:28:24;;;;;;;1.13;0.47;;;;;;;;;;5026401;28;20083;-70
2023/12/22 12:30:56;;;;;;;0.57;0.50;;;;;;;;;;5033943;28;20124;-69
2023/12/22 12:33:21;;;;;;;0.93;0.50;;;;;;;;;;5032539;28;20477;-70
2023/12/22 12:35:47;;;;;;;0.83;0.47;;;;;;;;;;5028599;28;20028;-69
2023/12/22 12:38:13;;;;;;;3.20;0.70;;;;;;;;;;5026715;28;20329;-68
2023/12/22 12:40:40;;;;;;;1.02;0.52;;;;;;;;;;5027565;28;20355;-68
2023/12/22 12:43:05;;;;;;;1.60;0.45;;;;;;;;;;5033093;28;20017;-69
2023/12/22 12:45:30;;;;;;;0.87;0.57;;;;;;;;;;5032037;28;20025;-68
2023/12/22 12:47:59;;;;;;;0.40;0.40;;;;;;;;;;5030899;28;20285;-68
2023/12/22 12:50:24;;;;;;;0.68;0.50;;;;;;;;;;5033121;28;20028;-68
2023/12/22 12:52:51;;;;;;;3.10;0.55;;;;;;;;;;5032763;28;20033;-69
2023/12/22 12:55:23;;;;;;;1.30;0.52;;;;;;;;;;5030848;28;20025;-69
2023/12/22 12:57:51;;;;;;;3.28;0.52;;;;;;;;;;5031636;28;20041;-68
2023/12/22 13:00:37;;;;;;;4.80;0.77;;;;;;;;;;5033194;28;20033;-68
2023/12/22 13:03:02;;;;;;;1.13;0.30;;;;;;;;;;5032513;28;20072;-69
2023/12/22 13:05:28;;;;;;;0.98;0.43;;;;;;;;;;5031599;28;20052;-68
2023/12/22 13:08:05;;;;;;;0.85;0.52;;;;;;;;;;5033298;28;20025;-68
2023/12/22 13:10:32;;;;;;;2.92;0.85;;;;;;;;;;5031382;28;20064;-68
2023/12/22 13:12:57;;;;;;;1.95;0.70;;;;;;;;;;5031942;28;20017;-69
2023/12/22 13:15:22;;;;;;;2.08;0.60;;;;;;;;;;5031847;28;20041;-68
2023/12/22 13:17:48;;;;;;;1.13;0.40;;;;;;;;;;5030338;28;20013;-68
2023/12/22 13:20:13;;;;;;;2.67;0.50;;;;;;;;;;5031519;28;20278;-68
2023/12/22 13:22:39;;;;;;;1.63;0.40;;;;;;;;;;5031541;28;20104;-67
2023/12/22 13:25:04;;;;;;;0.43;0.35;;;;;;;;;;5031050;28;20029;-68
2023/12/22 13:27:29;;;;;;;2.67;0.50;;;;;;;;;;5031411;28;20064;-68
2023/12/22 13:29:55;;;;;;;0.35;0.35;;;;;;;;;;5029405;28;20028;-68
2023/12/22 13:32:23;;;;;;;1.77;0.50;;;;;;;;;;5030476;28;20017;-69
2023/12/22 13:34:55;;;;;;;0.77;0.47;;;;;;;;;;5031743;28;20028;-68
2023/12/22 13:37:21;;;;;;;0.43;0.40;;;;;;;;;;5030474;28;20059;-68
2023/12/22 13:39:47;;;;;;;0.82;0.50;;;;;;;;;;5031495;28;20480;-69
2023/12/22 13:42:19;;;;;;;1.98;0.60;;;;;;;;;;5030690;28;20025;-68
2023/12/22 13:44:46;;;;;;;0.85;0.40;;;;;;;;;;5031028;28;20104;-65
2023/12/22 13:47:13;;;;;;;0.82;0.40;;;;;;;;;;5031492;28;20020;-65
2023/12/22 13:49:38;;;;;;;1.33;0.45;;;;;;;;;;5030814;28;20036;-65
2023/12/22 13:52:07;;;;;;;0.90;0.45;;;;;;;;;;5029823;28;20025;-65
2023/12/22 13:54:35;;;;;;;3.25;0.68;;;;;;;;;;5022914;28;20026;-66
2023/12/22 13:57:01;;;;;;;1.02;0.50;;;;;;;;;;5026055;28;20093;-66
2023/12/22 13:59:33;;;;;;;0.80;0.40;;;;;;;;;;5031724;28;20045;-65
2023/12/22 14:01:58;;;;;;;0.38;0.30;;;;;;;;;;5030739;28;20410;-65
2023/12/22 14:04:24;;;;;;;0.60;0.40;;;;;;;;;;5031098;28;20033;-65
2023/12/22 14:06:49;;;;;;;1.05;0.20;;;;;;;;;;5028143;28;20471;-65
2023/12/22 14:09:17;;;;;;;1.48;0.60;;;;;;;;;;5029266;28;20032;-65
2023/12/22 14:11:42;;;;;;;0.73;0.40;;;;;;;;;;5029361;28;20026;-65
2023/12/22 14:14:08;;;;;;;0.30;0.30;;;;;;;;;;5028278;28;20075;-66
2023/12/22 14:16:33;;;;;;;0.63;0.40;;;;;;;;;;5030056;28;20107;-65
2023/12/22 14:18:58;;;;;;;2.57;0.60;;;;;;;;;;5029957;28;20263;-65
2023/12/22 14:21:23;;;;;;;0.80;0.40;;;;;;;;;;5028942;28;20352;-65
2023/12/22 14:23:48;;;;;;;0.90;0.47;;;;;;;;;;5030362;28;20750;-65
2023/12/22 14:26:14;;;;;;;0.37;0.30;;;;;;;;;;5027590;28;20017;-66
2023/12/22 14:28:39;;;;;;;2.37;0.50;;;;;;;;;;5026628;28;20270;-65
2023/12/22 14:31:04;;;;;;;2.67;0.50;;;;;;;;;;5026194;28;20290;-65